sensor_id;sensor_type;location;lat;lon;timestamp;temperature;humidity
64654;DHT22;51065;48.884;12.598;2023-07-13T00:01:42;18.50;99.90
64654;DHT22;51065;48.884;12.598;2023-07-13T00:04:08;18.40;99.90
64654;DHT22;51065;48.884;12.598;2023-07-13T00:06:34;18.30;99.90
64654;DHT22;51065;48.884;12.598;2023-07-13T00:09:00;18.40;99.90
64654;DHT22;51065;48.884;12.598;2023-07-13T00:11:26;18.40;99.90
64654;DHT22;51065;48.884;12.598;2023-07-13T00:13:52;18.40;99.90
64654;DHT22;51065;48.884;12.598;2023-07-13T00:16:18;18.40;99.90
64654;DHT22;51065;48.884;12.598;2023-07-13T00:18:44;18.40;99.90
64654;DHT22;51065;48.884;12.598;2023-07-13T00:21:10;18.40;99.90
64654;DHT22;51065;48.884;12.598;2023-07-13T00:23:37;18.40;99.90
64654;DHT22;51065;48.884;12.598;2023-07-13T00:26:05;18.30;99.90
64654;DHT22;51065;48.884;12.598;2023-07-13T00:28:31;18.30;99.90
64654;DHT22;51065;48.884;12.598;2023-07-13T00:30:57;18.30;99.90
64654;DHT22;51065;48.884;12.598;2023-07-13T00:33:22;18.20;99.90
64654;DHT22;51065;48.884;12.598;2023-07-13T00:35:48;18.20;99.90
64654;DHT22;51065;48.884;12.598;2023-07-13T00:38:14;18.10;99.90
64654;DHT22;51065;48.884;12.598;2023-07-13T00:40:40;18.10;99.90
64654;DHT22;51065;48.884;12.598;2023-07-13T00:43:15;18.10;99.90
64654;DHT22;51065;48.884;12.598;2023-07-13T00:48:15;18.00;99.90
64654;DHT22;51065;48.884;12.598;2023-07-13T00:50:44;18.00;99.90
64654;DHT22;51065;48.884;12.598;2023-07-13T00:53:10;17.90;99.90
64654;DHT22;51065;48.884;12.598;2023-07-13T00:55:37;17.90;99.90
64654;DHT22;51065;48.884;12.598;2023-07-13T00:58:03;17.90;99.90
64654;DHT22;51065;48.884;12.598;2023-07-13T01:00:30;17.90;99.90
64654;DHT22;51065;48.884;12.598;2023-07-13T01:02:56;17.90;99.90
64654;DHT22;51065;48.884;12.598;2023-07-13T01:05:22;17.90;99.90
64654;DHT22;51065;48.884;12.598;2023-07-13T01:07:50;18.00;99.90
64654;DHT22;51065;48.884;12.598;2023-07-13T01:10:19;18.00;99.90
64654;DHT22;51065;48.884;12.598;2023-07-13T01:12:46;18.00;99.90
64654;DHT22;51065;48.884;12.598;2023-07-13T01:15:41;18.00;99.90
64654;DHT22;51065;48.884;12.598;2023-07-13T01:18:09;18.00;99.90
64654;DHT22;51065;48.884;12.598;2023-07-13T01:20:36;18.10;99.90
64654;DHT22;51065;48.884;12.598;2023-07-13T01:23:07;18.00;99.90
64654;DHT22;51065;48.884;12.598;2023-07-13T01:25:34;18.10;99.90
64654;DHT22;51065;48.884;12.598;2023-07-13T01:28:01;18.00;99.90
64654;DHT22;51065;48.884;12.598;2023-07-13T01:30:27;18.00;99.90
64654;DHT22;51065;48.884;12.598;2023-07-13T01:32:53;18.00;99.90
64654;DHT22;51065;48.884;12.598;2023-07-13T01:35:18;18.10;99.90
64654;DHT22;51065;48.884;12.598;2023-07-13T01:37:44;18.10;99.90
64654;DHT22;51065;48.884;12.598;2023-07-13T01:40:11;18.20;99.90
64654;DHT22;51065;48.884;12.598;2023-07-13T01:42:37;18.30;99.90
64654;DHT22;51065;48.884;12.598;2023-07-13T01:45:03;18.40;99.90
64654;DHT22;51065;48.884;12.598;2023-07-13T01:47:29;18.50;99.90
64654;DHT22;51065;48.884;12.598;2023-07-13T01:49:56;18.60;99.90
64654;DHT22;51065;48.884;12.598;2023-07-13T01:52:22;18.60;99.90
64654;DHT22;51065;48.884;12.598;2023-07-13T01:54:47;18.60;99.90
64654;DHT22;51065;48.884;12.598;2023-07-13T01:57:13;18.60;99.90
64654;DHT22;51065;48.884;12.598;2023-07-13T01:59:39;18.60;99.90
64654;DHT22;51065;48.884;12.598;2023-07-13T02:02:04;18.70;99.90
64654;DHT22;51065;48.884;12.598;2023-07-13T02:04:30;18.70;99.90
64654;DHT22;51065;48.884;12.598;2023-07-13T02:06:56;18.70;99.90
64654;DHT22;51065;48.884;12.598;2023-07-13T02:09:21;18.70;99.90
64654;DHT22;51065;48.884;12.598;2023-07-13T02:11:47;18.70;99.90
64654;DHT22;51065;48.884;12.598;2023-07-13T02:14:14;18.80;99.90
64654;DHT22;51065;48.884;12.598;2023-07-13T02:16:41;18.80;99.90
64654;DHT22;51065;48.884;12.598;2023-07-13T02:19:07;18.80;99.90
64654;DHT22;51065;48.884;12.598;2023-07-13T02:21:32;18.70;99.90
64654;DHT22;51065;48.884;12.598;2023-07-13T02:23:58;18.70;99.90
64654;DHT22;51065;48.884;12.598;2023-07-13T02:26:25;18.70;99.90
64654;DHT22;51065;48.884;12.598;2023-07-13T02:28:51;18.70;99.90
64654;DHT22;51065;48.884;12.598;2023-07-13T02:31:17;18.70;99.90
64654;DHT22;51065;48.884;12.598;2023-07-13T02:33:42;18.70;99.90
64654;DHT22;51065;48.884;12.598;2023-07-13T02:36:08;18.70;99.90
64654;DHT22;51065;48.884;12.598;2023-07-13T02:38:35;18.80;99.90
64654;DHT22;51065;48.884;12.598;2023-07-13T02:41:05;18.80;99.90
64654;DHT22;51065;48.884;12.598;2023-07-13T02:43:31;18.70;99.90
64654;DHT22;51065;48.884;12.598;2023-07-13T02:45:59;18.70;99.90
64654;DHT22;51065;48.884;12.598;2023-07-13T02:48:29;18.70;99.90
64654;DHT22;51065;48.884;12.598;2023-07-13T02:50:55;18.70;99.90
64654;DHT22;51065;48.884;12.598;2023-07-13T02:53:21;18.70;99.90
64654;DHT22;51065;48.884;12.598;2023-07-13T02:55:46;18.60;99.90
64654;DHT22;51065;48.884;12.598;2023-07-13T02:58:13;18.50;99.90
64654;DHT22;51065;48.884;12.598;2023-07-13T03:00:42;18.50;99.90
64654;DHT22;51065;48.884;12.598;2023-07-13T03:03:08;18.50;99.90
64654;DHT22;51065;48.884;12.598;2023-07-13T03:05:34;18.40;99.90
64654;DHT22;51065;48.884;12.598;2023-07-13T03:07:59;18.40;99.90
64654;DHT22;51065;48.884;12.598;2023-07-13T03:10:25;18.30;99.90
64654;DHT22;51065;48.884;12.598;2023-07-13T03:12:51;18.30;99.90
64654;DHT22;51065;48.884;12.598;2023-07-13T03:15:16;18.20;99.90
64654;DHT22;51065;48.884;12.598;2023-07-13T03:17:42;18.10;99.90
64654;DHT22;51065;48.884;12.598;2023-07-13T03:20:08;18.10;99.90
64654;DHT22;51065;48.884;12.598;2023-07-13T03:22:34;18.10;99.90
64654;DHT22;51065;48.884;12.598;2023-07-13T03:25:00;18.10;99.90
64654;DHT22;51065;48.884;12.598;2023-07-13T03:27:25;18.10;99.90
64654;DHT22;51065;48.884;12.598;2023-07-13T03:29:51;18.10;99.90
64654;DHT22;51065;48.884;12.598;2023-07-13T03:32:16;18.00;99.90
64654;DHT22;51065;48.884;12.598;2023-07-13T03:34:42;18.10;99.90
64654;DHT22;51065;48.884;12.598;2023-07-13T03:37:07;18.10;99.90
64654;DHT22;51065;48.884;12.598;2023-07-13T03:39:33;18.10;99.90
64654;DHT22;51065;48.884;12.598;2023-07-13T03:41:59;18.20;99.90
64654;DHT22;51065;48.884;12.598;2023-07-13T03:44:24;18.20;99.90
64654;DHT22;51065;48.884;12.598;2023-07-13T03:46:50;18.20;99.90
64654;DHT22;51065;48.884;12.598;2023-07-13T03:49:15;18.20;99.90
64654;DHT22;51065;48.884;12.598;2023-07-13T03:51:41;18.30;99.90
64654;DHT22;51065;48.884;12.598;2023-07-13T03:54:07;18.30;99.90
64654;DHT22;51065;48.884;12.598;2023-07-13T03:56:32;18.30;99.90
64654;DHT22;51065;48.884;12.598;2023-07-13T03:58:58;18.30;99.90
64654;DHT22;51065;48.884;12.598;2023-07-13T04:01:24;18.30;99.90
64654;DHT22;51065;48.884;12.598;2023-07-13T04:03:53;18.30;99.90
64654;DHT22;51065;48.884;12.598;2023-07-13T04:06:22;18.30;99.90
64654;DHT22;51065;48.884;12.598;2023-07-13T04:08:53;18.30;99.90
64654;DHT22;51065;48.884;12.598;2023-07-13T04:11:20;18.30;99.90
64654;DHT22;51065;48.884;12.598;2023-07-13T04:13:47;18.30;99.90
64654;DHT22;51065;48.884;12.598;2023-07-13T04:16:14;18.30;99.90
64654;DHT22;51065;48.884;12.598;2023-07-13T04:18:39;18.30;99.90
64654;DHT22;51065;48.884;12.598;2023-07-13T04:21:06;18.40;99.90
64654;DHT22;51065;48.884;12.598;2023-07-13T04:23:32;18.30;99.90
64654;DHT22;51065;48.884;12.598;2023-07-13T04:25:58;18.30;99.90
64654;DHT22;51065;48.884;12.598;2023-07-13T04:28:24;18.40;99.90
64654;DHT22;51065;48.884;12.598;2023-07-13T04:30:51;18.40;99.90
64654;DHT22;51065;48.884;12.598;2023-07-13T04:33:17;18.40;99.90
64654;DHT22;51065;48.884;12.598;2023-07-13T04:35:43;18.50;99.90
64654;DHT22;51065;48.884;12.598;2023-07-13T04:38:12;18.60;99.90
64654;DHT22;51065;48.884;12.598;2023-07-13T04:40:38;18.80;99.90
64654;DHT22;51065;48.884;12.598;2023-07-13T04:43:03;18.90;99.90
64654;DHT22;51065;48.884;12.598;2023-07-13T04:45:29;19.00;99.90
64654;DHT22;51065;48.884;12.598;2023-07-13T04:47:56;19.10;99.90
64654;DHT22;51065;48.884;12.598;2023-07-13T04:50:22;19.20;99.90
64654;DHT22;51065;48.884;12.598;2023-07-13T04:52:49;19.30;99.90
64654;DHT22;51065;48.884;12.598;2023-07-13T04:55:15;19.40;99.90
64654;DHT22;51065;48.884;12.598;2023-07-13T04:57:41;19.50;99.90
64654;DHT22;51065;48.884;12.598;2023-07-13T05:00:07;19.50;99.90
64654;DHT22;51065;48.884;12.598;2023-07-13T05:02:33;19.50;99.90
64654;DHT22;51065;48.884;12.598;2023-07-13T05:05:00;19.60;99.90
64654;DHT22;51065;48.884;12.598;2023-07-13T05:07:26;19.50;99.90
64654;DHT22;51065;48.884;12.598;2023-07-13T05:09:52;19.60;99.90
64654;DHT22;51065;48.884;12.598;2023-07-13T05:12:18;19.60;99.90
64654;DHT22;51065;48.884;12.598;2023-07-13T05:14:44;19.70;99.90
64654;DHT22;51065;48.884;12.598;2023-07-13T05:17:10;19.70;99.90
64654;DHT22;51065;48.884;12.598;2023-07-13T05:19:35;19.70;99.90
64654;DHT22;51065;48.884;12.598;2023-07-13T05:22:01;19.60;99.90
64654;DHT22;51065;48.884;12.598;2023-07-13T05:24:28;19.60;99.90
64654;DHT22;51065;48.884;12.598;2023-07-13T05:26:54;19.60;99.90
64654;DHT22;51065;48.884;12.598;2023-07-13T05:29:20;19.70;99.90
64654;DHT22;51065;48.884;12.598;2023-07-13T05:31:46;19.60;99.90
64654;DHT22;51065;48.884;12.598;2023-07-13T05:34:12;19.50;99.90
64654;DHT22;51065;48.884;12.598;2023-07-13T05:36:37;19.40;99.90
64654;DHT22;51065;48.884;12.598;2023-07-13T05:39:04;19.40;99.90
64654;DHT22;51065;48.884;12.598;2023-07-13T05:41:29;19.40;99.90
64654;DHT22;51065;48.884;12.598;2023-07-13T05:43:55;19.40;99.90
64654;DHT22;51065;48.884;12.598;2023-07-13T05:46:21;19.40;99.90
64654;DHT22;51065;48.884;12.598;2023-07-13T05:48:46;19.40;99.90
64654;DHT22;51065;48.884;12.598;2023-07-13T05:51:13;19.60;99.90
64654;DHT22;51065;48.884;12.598;2023-07-13T05:53:39;19.70;99.90
64654;DHT22;51065;48.884;12.598;2023-07-13T05:56:05;19.90;99.90
64654;DHT22;51065;48.884;12.598;2023-07-13T05:58:30;20.10;99.90
64654;DHT22;51065;48.884;12.598;2023-07-13T06:01:06;20.30;99.90
64654;DHT22;51065;48.884;12.598;2023-07-13T06:03:33;20.40;99.90
64654;DHT22;51065;48.884;12.598;2023-07-13T06:05:58;20.80;99.90
64654;DHT22;51065;48.884;12.598;2023-07-13T06:08:26;21.20;99.90
64654;DHT22;51065;48.884;12.598;2023-07-13T06:10:51;21.30;99.90
64654;DHT22;51065;48.884;12.598;2023-07-13T06:13:17;21.30;99.90
64654;DHT22;51065;48.884;12.598;2023-07-13T06:15:48;21.10;99.90
64654;DHT22;51065;48.884;12.598;2023-07-13T06:18:14;20.80;99.90
64654;DHT22;51065;48.884;12.598;2023-07-13T06:20:40;20.90;99.90
64654;DHT22;51065;48.884;12.598;2023-07-13T06:23:05;21.20;99.90
64654;DHT22;51065;48.884;12.598;2023-07-13T06:25:31;21.70;99.90
64654;DHT22;51065;48.884;12.598;2023-07-13T06:27:56;22.30;99.90
64654;DHT22;51065;48.884;12.598;2023-07-13T06:30:22;22.40;99.90
64654;DHT22;51065;48.884;12.598;2023-07-13T06:32:48;22.30;99.90
64654;DHT22;51065;48.884;12.598;2023-07-13T06:35:13;22.00;99.90
64654;DHT22;51065;48.884;12.598;2023-07-13T06:37:39;21.90;99.90
64654;DHT22;51065;48.884;12.598;2023-07-13T06:40:05;21.80;99.90
64654;DHT22;51065;48.884;12.598;2023-07-13T06:42:31;21.60;99.90
64654;DHT22;51065;48.884;12.598;2023-07-13T06:44:56;21.50;99.90
64654;DHT22;51065;48.884;12.598;2023-07-13T06:47:22;21.40;99.90
64654;DHT22;51065;48.884;12.598;2023-07-13T06:49:48;21.30;99.90
64654;DHT22;51065;48.884;12.598;2023-07-13T06:52:13;21.30;99.90
64654;DHT22;51065;48.884;12.598;2023-07-13T06:54:39;21.40;99.90
64654;DHT22;51065;48.884;12.598;2023-07-13T06:57:05;21.80;99.90
64654;DHT22;51065;48.884;12.598;2023-07-13T06:59:30;22.20;99.90
64654;DHT22;51065;48.884;12.598;2023-07-13T07:01:56;22.30;99.90
64654;DHT22;51065;48.884;12.598;2023-07-13T07:04:21;22.00;99.90
64654;DHT22;51065;48.884;12.598;2023-07-13T07:06:47;21.60;99.90
64654;DHT22;51065;48.884;12.598;2023-07-13T07:09:13;21.70;99.90
64654;DHT22;51065;48.884;12.598;2023-07-13T07:11:39;22.60;99.90
64654;DHT22;51065;48.884;12.598;2023-07-13T07:14:05;23.70;99.90
64654;DHT22;51065;48.884;12.598;2023-07-13T07:16:30;24.70;99.90
64654;DHT22;51065;48.884;12.598;2023-07-13T07:18:56;25.00;99.90
64654;DHT22;51065;48.884;12.598;2023-07-13T07:21:21;25.70;99.90
64654;DHT22;51065;48.884;12.598;2023-07-13T07:23:48;25.90;99.90
64654;DHT22;51065;48.884;12.598;2023-07-13T07:26:15;26.10;99.90
64654;DHT22;51065;48.884;12.598;2023-07-13T07:28:40;26.10;99.60
64654;DHT22;51065;48.884;12.598;2023-07-13T07:31:06;26.80;98.70
64654;DHT22;51065;48.884;12.598;2023-07-13T07:33:33;26.40;94.80
64654;DHT22;51065;48.884;12.598;2023-07-13T07:36:00;26.40;95.30
64654;DHT22;51065;48.884;12.598;2023-07-13T07:38:25;26.80;96.20
64654;DHT22;51065;48.884;12.598;2023-07-13T07:40:52;27.20;92.50
64654;DHT22;51065;48.884;12.598;2023-07-13T07:43:17;26.70;92.70
64654;DHT22;51065;48.884;12.598;2023-07-13T07:45:44;26.90;94.20
64654;DHT22;51065;48.884;12.598;2023-07-13T07:48:10;26.80;90.00
64654;DHT22;51065;48.884;12.598;2023-07-13T07:50:36;26.70;97.50
64654;DHT22;51065;48.884;12.598;2023-07-13T07:53:02;26.50;90.50
64654;DHT22;51065;48.884;12.598;2023-07-13T07:55:28;26.20;95.30
64654;DHT22;51065;48.884;12.598;2023-07-13T07:57:55;25.90;93.70
64654;DHT22;51065;48.884;12.598;2023-07-13T08:00:21;26.20;94.50
64654;DHT22;51065;48.884;12.598;2023-07-13T08:02:47;25.90;94.90
64654;DHT22;51065;48.884;12.598;2023-07-13T08:05:13;25.40;94.30
64654;DHT22;51065;48.884;12.598;2023-07-13T08:07:39;25.50;97.20
64654;DHT22;51065;48.884;12.598;2023-07-13T08:10:06;25.50;93.30
64654;DHT22;51065;48.884;12.598;2023-07-13T08:12:37;26.30;95.60
64654;DHT22;51065;48.884;12.598;2023-07-13T08:15:03;26.80;76.70
64654;DHT22;51065;48.884;12.598;2023-07-13T08:17:29;26.10;77.70
64654;DHT22;51065;48.884;12.598;2023-07-13T08:19:55;26.00;90.80
64654;DHT22;51065;48.884;12.598;2023-07-13T08:22:20;26.00;84.50
64654;DHT22;51065;48.884;12.598;2023-07-13T08:24:46;26.20;88.10
64654;DHT22;51065;48.884;12.598;2023-07-13T08:27:12;26.90;68.40
64654;DHT22;51065;48.884;12.598;2023-07-13T08:29:39;27.20;67.30
64654;DHT22;51065;48.884;12.598;2023-07-13T08:32:06;26.80;68.80
64654;DHT22;51065;48.884;12.598;2023-07-13T08:34:35;26.70;72.00
64654;DHT22;51065;48.884;12.598;2023-07-13T08:37:02;26.60;76.80
64654;DHT22;51065;48.884;12.598;2023-07-13T08:39:29;26.80;76.40
64654;DHT22;51065;48.884;12.598;2023-07-13T08:42:00;26.40;76.80
64654;DHT22;51065;48.884;12.598;2023-07-13T08:47:21;26.40;79.60
64654;DHT22;51065;48.884;12.598;2023-07-13T08:49:48;27.40;69.30
64654;DHT22;51065;48.884;12.598;2023-07-13T08:52:35;27.80;53.00
64654;DHT22;51065;48.884;12.598;2023-07-13T08:55:18;26.80;56.20
64654;DHT22;51065;48.884;12.598;2023-07-13T08:57:59;26.40;54.70
64654;DHT22;51065;48.884;12.598;2023-07-13T09:00:33;26.50;58.80
64654;DHT22;51065;48.884;12.598;2023-07-13T09:03:00;27.70;55.60
64654;DHT22;51065;48.884;12.598;2023-07-13T09:05:36;28.40;49.70
64654;DHT22;51065;48.884;12.598;2023-07-13T09:16:21;28.00;45.70
64654;DHT22;51065;48.884;12.598;2023-07-13T09:18:49;27.50;47.50
64654;DHT22;51065;48.884;12.598;2023-07-13T09:21:21;27.30;50.20
64654;DHT22;51065;48.884;12.598;2023-07-13T09:23:48;27.30;50.00
64654;DHT22;51065;48.884;12.598;2023-07-13T09:26:20;27.30;52.30
64654;DHT22;51065;48.884;12.598;2023-07-13T09:29:12;28.50;48.50
64654;DHT22;51065;48.884;12.598;2023-07-13T09:31:44;28.30;47.30
64654;DHT22;51065;48.884;12.598;2023-07-13T09:34:13;27.80;46.80
64654;DHT22;51065;48.884;12.598;2023-07-13T09:36:39;27.60;48.40
64654;DHT22;51065;48.884;12.598;2023-07-13T09:42:01;27.10;50.80
64654;DHT22;51065;48.884;12.598;2023-07-13T09:44:53;27.90;46.60
64654;DHT22;51065;48.884;12.598;2023-07-13T09:47:30;28.20;46.70
64654;DHT22;51065;48.884;12.598;2023-07-13T09:50:01;28.20;50.10
64654;DHT22;51065;48.884;12.598;2023-07-13T09:55:35;29.50;46.40
64654;DHT22;51065;48.884;12.598;2023-07-13T09:58:14;30.20;43.90
64654;DHT22;51065;48.884;12.598;2023-07-13T10:00:40;28.80;44.00
64654;DHT22;51065;48.884;12.598;2023-07-13T10:03:53;28.20;46.20
64654;DHT22;51065;48.884;12.598;2023-07-13T10:06:23;27.80;48.70
64654;DHT22;51065;48.884;12.598;2023-07-13T10:08:54;27.60;47.10
64654;DHT22;51065;48.884;12.598;2023-07-13T10:11:23;28.00;47.30
64654;DHT22;51065;48.884;12.598;2023-07-13T10:13:56;28.50;44.90
64654;DHT22;51065;48.884;12.598;2023-07-13T10:16:25;28.50;44.80
64654;DHT22;51065;48.884;12.598;2023-07-13T10:18:56;27.70;45.60
64654;DHT22;51065;48.884;12.598;2023-07-13T10:21:36;27.10;48.30
64654;DHT22;51065;48.884;12.598;2023-07-13T10:26:41;27.20;46.90
64654;DHT22;51065;48.884;12.598;2023-07-13T10:29:13;26.70;48.50
64654;DHT22;51065;48.884;12.598;2023-07-13T10:31:40;26.40;50.50
64654;DHT22;51065;48.884;12.598;2023-07-13T10:34:10;26.70;49.20
64654;DHT22;51065;48.884;12.598;2023-07-13T10:36:42;27.60;49.80
64654;DHT22;51065;48.884;12.598;2023-07-13T10:39:21;28.20;47.80
64654;DHT22;51065;48.884;12.598;2023-07-13T10:41:50;27.50;43.80
64654;DHT22;51065;48.884;12.598;2023-07-13T10:44:27;27.50;44.30
64654;DHT22;51065;48.884;12.598;2023-07-13T10:46:58;27.70;45.20
64654;DHT22;51065;48.884;12.598;2023-07-13T10:49:26;27.80;46.40
64654;DHT22;51065;48.884;12.598;2023-07-13T10:51:52;28.30;45.60
64654;DHT22;51065;48.884;12.598;2023-07-13T10:59:41;26.90;46.70
64654;DHT22;51065;48.884;12.598;2023-07-13T11:02:26;26.90;45.70
64654;DHT22;51065;48.884;12.598;2023-07-13T11:04:53;26.70;46.10
64654;DHT22;51065;48.884;12.598;2023-07-13T11:07:28;27.40;46.50
64654;DHT22;51065;48.884;12.598;2023-07-13T11:09:59;27.40;45.30
64654;DHT22;51065;48.884;12.598;2023-07-13T11:12:27;27.80;47.50
64654;DHT22;51065;48.884;12.598;2023-07-13T11:17:49;27.70;47.60
64654;DHT22;51065;48.884;12.598;2023-07-13T11:30:47;28.60;44.50
64654;DHT22;51065;48.884;12.598;2023-07-13T11:33:25;29.30;42.20
64654;DHT22;51065;48.884;12.598;2023-07-13T11:36:12;29.70;40.00
64654;DHT22;51065;48.884;12.598;2023-07-13T11:38:47;29.20;40.10
64654;DHT22;51065;48.884;12.598;2023-07-13T11:41:26;28.60;42.00
64654;DHT22;51065;48.884;12.598;2023-07-13T11:43:55;28.70;40.80
64654;DHT22;51065;48.884;12.598;2023-07-13T11:46:26;28.40;41.60
64654;DHT22;51065;48.884;12.598;2023-07-13T11:48:53;29.00;41.10
64654;DHT22;51065;48.884;12.598;2023-07-13T11:51:25;29.90;41.20
64654;DHT22;51065;48.884;12.598;2023-07-13T11:53:54;30.00;39.40
64654;DHT22;51065;48.884;12.598;2023-07-13T11:56:21;30.00;40.40
64654;DHT22;51065;48.884;12.598;2023-07-13T11:58:50;30.00;40.60
64654;DHT22;51065;48.884;12.598;2023-07-13T12:01:22;30.60;39.60
64654;DHT22;51065;48.884;12.598;2023-07-13T12:03:49;30.00;40.50
64654;DHT22;51065;48.884;12.598;2023-07-13T12:06:30;29.70;39.20
64654;DHT22;51065;48.884;12.598;2023-07-13T12:08:58;30.00;36.90
64654;DHT22;51065;48.884;12.598;2023-07-13T12:11:24;29.40;38.50
64654;DHT22;51065;48.884;12.598;2023-07-13T12:13:50;29.80;38.80
64654;DHT22;51065;48.884;12.598;2023-07-13T12:16:32;29.20;39.30
64654;DHT22;51065;48.884;12.598;2023-07-13T12:18:59;28.40;41.80
64654;DHT22;51065;48.884;12.598;2023-07-13T12:21:44;28.30;42.70
64654;DHT22;51065;48.884;12.598;2023-07-13T12:24:28;28.90;41.20
64654;DHT22;51065;48.884;12.598;2023-07-13T12:27:02;29.40;41.40
64654;DHT22;51065;48.884;12.598;2023-07-13T12:29:31;29.70;37.90
64654;DHT22;51065;48.884;12.598;2023-07-13T12:31:57;29.10;39.90
64654;DHT22;51065;48.884;12.598;2023-07-13T12:34:24;28.90;41.50
64654;DHT22;51065;48.884;12.598;2023-07-13T12:36:55;29.10;40.90
64654;DHT22;51065;48.884;12.598;2023-07-13T12:39:43;29.10;38.30
64654;DHT22;51065;48.884;12.598;2023-07-13T12:42:24;28.80;38.70
64654;DHT22;51065;48.884;12.598;2023-07-13T12:45:01;28.90;40.00
64654;DHT22;51065;48.884;12.598;2023-07-13T12:47:28;29.00;40.20
64654;DHT22;51065;48.884;12.598;2023-07-13T12:49:56;29.00;38.10
64654;DHT22;51065;48.884;12.598;2023-07-13T12:52:43;29.00;38.40
64654;DHT22;51065;48.884;12.598;2023-07-13T12:55:16;29.20;38.50
64654;DHT22;51065;48.884;12.598;2023-07-13T12:57:54;29.20;37.90
64654;DHT22;51065;48.884;12.598;2023-07-13T13:00:30;28.20;37.90
64654;DHT22;51065;48.884;12.598;2023-07-13T13:03:11;28.10;38.80
64654;DHT22;51065;48.884;12.598;2023-07-13T13:05:43;28.40;37.50
64654;DHT22;51065;48.884;12.598;2023-07-13T13:08:13;28.90;39.20
64654;DHT22;51065;48.884;12.598;2023-07-13T13:10:39;29.10;36.40
64654;DHT22;51065;48.884;12.598;2023-07-13T13:13:05;29.40;36.40
64654;DHT22;51065;48.884;12.598;2023-07-13T13:15:30;28.90;37.10
64654;DHT22;51065;48.884;12.598;2023-07-13T13:17:56;29.20;37.40
64654;DHT22;51065;48.884;12.598;2023-07-13T13:20:24;29.00;35.50
64654;DHT22;51065;48.884;12.598;2023-07-13T13:22:51;28.80;36.80
64654;DHT22;51065;48.884;12.598;2023-07-13T13:25:17;28.90;37.50
64654;DHT22;51065;48.884;12.598;2023-07-13T13:27:44;29.10;36.90
64654;DHT22;51065;48.884;12.598;2023-07-13T13:30:15;28.70;36.90
64654;DHT22;51065;48.884;12.598;2023-07-13T13:32:43;28.70;38.60
64654;DHT22;51065;48.884;12.598;2023-07-13T13:35:17;28.70;36.50
64654;DHT22;51065;48.884;12.598;2023-07-13T13:37:43;27.80;37.70
64654;DHT22;51065;48.884;12.598;2023-07-13T13:40:18;27.90;39.40
64654;DHT22;51065;48.884;12.598;2023-07-13T13:42:44;28.30;39.10
64654;DHT22;51065;48.884;12.598;2023-07-13T13:45:10;28.70;39.10
64654;DHT22;51065;48.884;12.598;2023-07-13T13:47:38;28.80;37.30
64654;DHT22;51065;48.884;12.598;2023-07-13T13:50:12;29.20;37.90
64654;DHT22;51065;48.884;12.598;2023-07-13T13:52:40;28.90;36.60
64654;DHT22;51065;48.884;12.598;2023-07-13T13:55:16;29.00;36.20
64654;DHT22;51065;48.884;12.598;2023-07-13T13:57:45;28.80;36.10
64654;DHT22;51065;48.884;12.598;2023-07-13T14:00:11;29.00;34.80
64654;DHT22;51065;48.884;12.598;2023-07-13T14:02:40;28.90;35.30
64654;DHT22;51065;48.884;12.598;2023-07-13T14:05:13;28.90;37.30
64654;DHT22;51065;48.884;12.598;2023-07-13T14:07:39;28.80;36.00
64654;DHT22;51065;48.884;12.598;2023-07-13T14:10:12;29.00;38.80
64654;DHT22;51065;48.884;12.598;2023-07-13T14:12:38;28.80;35.10
64654;DHT22;51065;48.884;12.598;2023-07-13T14:15:04;28.90;36.40
64654;DHT22;51065;48.884;12.598;2023-07-13T14:17:30;28.80;35.60
64654;DHT22;51065;48.884;12.598;2023-07-13T14:19:56;28.30;36.90
64654;DHT22;51065;48.884;12.598;2023-07-13T14:22:26;27.80;36.90
64654;DHT22;51065;48.884;12.598;2023-07-13T14:24:53;27.70;38.20
64654;DHT22;51065;48.884;12.598;2023-07-13T14:27:19;27.50;39.00
64654;DHT22;51065;48.884;12.598;2023-07-13T14:29:44;28.00;37.70
64654;DHT22;51065;48.884;12.598;2023-07-13T14:32:11;28.70;37.20
64654;DHT22;51065;48.884;12.598;2023-07-13T14:34:37;29.70;36.40
64654;DHT22;51065;48.884;12.598;2023-07-13T14:37:03;30.50;34.90
64654;DHT22;51065;48.884;12.598;2023-07-13T14:39:30;30.50;33.50
64654;DHT22;51065;48.884;12.598;2023-07-13T14:41:56;30.30;34.10
64654;DHT22;51065;48.884;12.598;2023-07-13T14:44:24;29.70;34.10
64654;DHT22;51065;48.884;12.598;2023-07-13T14:46:51;29.00;34.40
64654;DHT22;51065;48.884;12.598;2023-07-13T14:49:28;28.10;36.10
64654;DHT22;51065;48.884;12.598;2023-07-13T14:52:01;28.30;38.10
64654;DHT22;51065;48.884;12.598;2023-07-13T14:54:27;28.40;37.20
64654;DHT22;51065;48.884;12.598;2023-07-13T14:56:52;28.30;35.30
64654;DHT22;51065;48.884;12.598;2023-07-13T14:59:18;28.40;35.40
64654;DHT22;51065;48.884;12.598;2023-07-13T15:01:47;28.40;34.60
64654;DHT22;51065;48.884;12.598;2023-07-13T15:04:14;28.50;35.50
64654;DHT22;51065;48.884;12.598;2023-07-13T15:06:57;27.80;35.40
64654;DHT22;51065;48.884;12.598;2023-07-13T15:09:25;27.90;36.50
64654;DHT22;51065;48.884;12.598;2023-07-13T15:11:52;28.60;35.60
64654;DHT22;51065;48.884;12.598;2023-07-13T15:14:18;29.00;34.20
64654;DHT22;51065;48.884;12.598;2023-07-13T15:16:46;29.30;34.90
64654;DHT22;51065;48.884;12.598;2023-07-13T15:19:11;29.80;34.50
64654;DHT22;51065;48.884;12.598;2023-07-13T15:21:37;29.60;32.40
64654;DHT22;51065;48.884;12.598;2023-07-13T15:24:03;28.90;33.60
64654;DHT22;51065;48.884;12.598;2023-07-13T15:26:29;28.60;33.00
64654;DHT22;51065;48.884;12.598;2023-07-13T15:28:55;28.50;34.00
64654;DHT22;51065;48.884;12.598;2023-07-13T15:31:23;28.40;33.90
64654;DHT22;51065;48.884;12.598;2023-07-13T15:33:51;28.30;34.70
64654;DHT22;51065;48.884;12.598;2023-07-13T15:36:19;28.30;34.30
64654;DHT22;51065;48.884;12.598;2023-07-13T15:38:45;28.40;35.70
64654;DHT22;51065;48.884;12.598;2023-07-13T15:41:26;28.50;34.20
64654;DHT22;51065;48.884;12.598;2023-07-13T15:43:57;28.70;34.00
64654;DHT22;51065;48.884;12.598;2023-07-13T15:46:24;28.80;34.60
64654;DHT22;51065;48.884;12.598;2023-07-13T15:48:51;28.40;33.60
64654;DHT22;51065;48.884;12.598;2023-07-13T15:51:28;28.40;33.10
64654;DHT22;51065;48.884;12.598;2023-07-13T15:53:59;28.30;34.00
64654;DHT22;51065;48.884;12.598;2023-07-13T15:56:29;28.40;32.60
64654;DHT22;51065;48.884;12.598;2023-07-13T15:58:56;28.30;33.40
64654;DHT22;51065;48.884;12.598;2023-07-13T16:01:23;28.30;33.40
64654;DHT22;51065;48.884;12.598;2023-07-13T16:03:49;28.20;34.70